createdAt,value
2023-04-06T00:01:01.097Z,2.98
2023-04-06T00:04:43.863Z,2.98
2023-04-06T00:08:27.310Z,2.92
2023-04-06T00:12:10.054Z,2.88
2023-04-06T00:15:52.803Z,2.85
2023-04-06T00:19:37.011Z,2.78
2023-04-06T00:23:19.933Z,2.78
2023-04-06T00:27:03.095Z,2.72
2023-04-06T00:30:45.832Z,2.75
2023-04-06T00:34:28.595Z,2.72
2023-04-06T00:38:12.670Z,2.64
2023-04-06T00:41:56.042Z,2.62
2023-04-06T00:45:40.459Z,2.58
2023-04-06T00:49:23.233Z,2.49
2023-04-06T00:53:06.125Z,2.47
2023-04-06T00:56:50.254Z,2.48
2023-04-06T01:00:34.142Z,2.45
2023-04-06T01:04:17.224Z,2.35
2023-04-06T01:07:59.972Z,2.30
2023-04-06T01:11:42.712Z,1.87
2023-04-06T01:15:27.985Z,1.79
2023-04-06T01:19:13.050Z,1.85
2023-04-06T01:22:57.150Z,1.93
2023-04-06T01:26:40.469Z,2.00
2023-04-06T01:30:26.170Z,2.06
2023-04-06T01:34:09.047Z,2.09
2023-04-06T01:37:51.834Z,2.10
2023-04-06T01:41:36.072Z,2.06
2023-04-06T01:45:18.778Z,1.84
2023-04-06T01:49:01.594Z,1.75
2023-04-06T01:52:44.341Z,1.85
2023-04-06T01:56:27.481Z,1.97
2023-04-06T02:00:13.217Z,1.82
2023-04-06T02:03:56.034Z,1.72
2023-04-06T02:07:38.874Z,1.69
2023-04-06T02:11:21.613Z,1.52
2023-04-06T02:15:04.628Z,1.42
2023-04-06T02:18:48.759Z,1.42
2023-04-06T02:22:31.478Z,1.42
2023-04-06T02:26:14.171Z,1.35
2023-04-06T02:29:56.906Z,1.26
2023-04-06T02:33:39.695Z,1.35
2023-04-06T02:37:24.929Z,1.38
2023-04-06T02:41:07.737Z,1.31
2023-04-06T02:44:50.657Z,1.11
2023-04-06T02:48:36.942Z,0.83
2023-04-06T02:52:19.916Z,0.64
2023-04-06T02:56:04.125Z,0.67
2023-04-06T02:59:46.948Z,0.68
2023-04-06T03:03:29.732Z,0.72
2023-04-06T03:07:12.917Z,0.89
2023-04-06T03:10:55.899Z,1.03
2023-04-06T03:14:40.016Z,0.94
2023-04-06T03:18:23.948Z,0.99
2023-04-06T03:22:06.699Z,1.09
2023-04-06T03:25:49.457Z,1.14
2023-04-06T03:29:32.278Z,1.16
2023-04-06T03:33:16.374Z,1.18
2023-04-06T03:37:09.355Z,1.19
2023-04-06T03:40:52.927Z,1.05
2023-04-06T03:44:35.722Z,0.77
2023-04-06T03:48:19.827Z,0.70
2023-04-06T03:52:03.156Z,0.71
2023-04-06T03:55:46.018Z,0.62
2023-04-06T03:59:28.863Z,0.60
2023-04-06T04:03:11.748Z,0.51
2023-04-06T04:06:56.106Z,0.48
2023-04-06T04:10:38.878Z,0.53
2023-04-06T04:14:21.615Z,0.45
2023-04-06T04:18:04.595Z,0.37
2023-04-06T04:21:48.605Z,0.34
2023-04-06T04:25:32.736Z,0.57
2023-04-06T04:29:16.293Z,0.72
2023-04-06T04:32:59.256Z,0.67
2023-04-06T04:36:43.015Z,0.72
2023-04-06T04:40:25.810Z,0.77
2023-04-06T04:44:12.820Z,0.79
2023-04-06T04:47:55.780Z,0.65
2023-04-06T04:51:38.647Z,0.54
2023-04-06T04:55:21.509Z,0.56
2023-04-06T04:59:04.307Z,0.69
2023-04-06T05:02:48.529Z,0.74
2023-04-06T05:06:31.932Z,0.87
2023-04-06T05:10:14.855Z,0.87
2023-04-06T05:13:59.813Z,0.93
2023-04-06T05:17:43.307Z,1.02
2023-04-06T05:21:29.107Z,1.08
2023-04-06T05:25:12.013Z,1.16
2023-04-06T05:28:55.669Z,1.21
2023-04-06T05:32:38.783Z,1.20
2023-04-06T05:36:21.545Z,1.26
2023-04-06T05:40:09.220Z,1.37
2023-04-06T05:43:51.970Z,1.34
2023-04-06T05:47:34.780Z,2.22
2023-04-06T05:51:17.595Z,3.74
2023-04-06T05:55:00.336Z,3.17
2023-04-06T05:58:44.675Z,2.79
2023-04-06T06:02:27.563Z,2.51
2023-04-06T06:06:10.396Z,2.41
2023-04-06T06:09:53.114Z,2.46
2023-04-06T06:13:35.856Z,2.36
2023-04-06T06:17:20.034Z,2.43
2023-04-06T06:21:02.944Z,2.45
2023-04-06T06:24:45.927Z,2.49
2023-04-06T06:28:28.886Z,2.58
2023-04-06T06:32:11.680Z,2.65
2023-04-06T06:35:55.840Z,2.77
2023-04-06T06:39:38.585Z,2.84
2023-04-06T06:43:21.312Z,2.96
2023-04-06T06:47:04.080Z,3.05
2023-04-06T06:50:47.006Z,3.25
2023-04-06T06:54:34.242Z,3.44
2023-04-06T06:58:17.203Z,3.67
2023-04-06T07:01:59.928Z,3.93
2023-04-06T07:05:50.107Z,4.09
2023-04-06T07:09:34.430Z,4.16
2023-04-06T07:13:21.680Z,4.31
2023-04-06T07:17:04.574Z,4.41
2023-04-06T07:20:47.454Z,4.53
2023-04-06T07:24:30.370Z,4.62
2023-04-06T07:28:14.548Z,4.68
2023-04-06T07:31:57.669Z,4.75
2023-04-06T07:35:40.754Z,4.82
2023-04-06T07:39:23.504Z,4.92
2023-04-06T07:43:06.275Z,4.91
2023-04-06T07:46:50.399Z,4.78
2023-04-06T07:50:33.206Z,4.93
2023-04-06T07:54:15.997Z,5.01
2023-04-06T07:57:58.709Z,5.08
2023-04-06T08:01:41.468Z,5.34
2023-04-06T08:05:25.752Z,5.43
2023-04-06T08:09:08.498Z,5.46
2023-04-06T08:12:51.247Z,5.60
2023-04-06T08:16:33.947Z,5.78
2023-04-06T08:20:16.854Z,5.87
2023-04-06T08:24:01.024Z,6.02
2023-04-06T08:27:43.810Z,6.15
2023-04-06T08:31:27.262Z,6.17
2023-04-06T08:35:10.457Z,6.27
2023-04-06T08:38:53.440Z,6.41
2023-04-06T08:42:42.671Z,6.21
2023-04-06T08:46:30.398Z,6.28
2023-04-06T08:50:13.502Z,6.41
2023-04-06T08:53:57.112Z,6.51
2023-04-06T08:57:41.692Z,6.59
2023-04-06T09:01:27.613Z,6.59
2023-04-06T09:05:10.927Z,6.58
2023-04-06T09:08:53.690Z,6.57
2023-04-06T09:12:37.033Z,6.61
2023-04-06T09:16:21.621Z,6.85
2023-04-06T09:20:05.745Z,7.11
2023-04-06T09:23:49.602Z,7.08
2023-04-06T09:27:32.952Z,7.04
2023-04-06T09:31:16.086Z,7.17
2023-04-06T09:35:09.385Z,7.27
2023-04-06T09:38:56.854Z,7.82
2023-04-06T09:42:40.781Z,7.80
2023-04-06T09:46:24.594Z,7.73
2023-04-06T09:50:10.237Z,7.75
2023-04-06T09:53:55.563Z,7.71
2023-04-06T09:57:42.432Z,7.55
2023-04-06T10:01:28.824Z,7.58
2023-04-06T10:05:19.276Z,7.84
2023-04-06T10:09:04.285Z,8.00
2023-04-06T10:12:47.538Z,7.97
2023-04-06T10:16:30.942Z,8.11
2023-04-06T10:20:21.919Z,8.25
2023-04-06T10:24:10.895Z,8.49
2023-04-06T10:28:01.263Z,8.38
2023-04-06T10:31:45.626Z,8.11
2023-04-06T10:35:40.465Z,8.10
2023-04-06T10:39:28.051Z,7.91
2023-04-06T10:43:12.595Z,7.86
2023-04-06T10:46:56.054Z,8.11
2023-04-06T10:50:41.103Z,8.43
2023-04-06T10:54:26.067Z,8.38
2023-04-06T10:58:09.210Z,8.44
2023-04-06T11:01:52.032Z,8.60
2023-04-06T11:05:34.867Z,8.60
2023-04-06T11:09:27.963Z,8.70
2023-04-06T11:13:10.800Z,8.61
2023-04-06T11:16:53.623Z,8.80
2023-04-06T11:20:36.696Z,9.02
2023-04-06T11:24:21.208Z,9.17
2023-04-06T11:28:05.389Z,9.10
2023-04-06T11:31:48.889Z,9.17
2023-04-06T11:35:33.663Z,9.27
2023-04-06T11:39:21.142Z,9.43
2023-04-06T11:43:07.909Z,9.37
2023-04-06T11:46:54.487Z,9.34
2023-04-06T11:50:38.027Z,9.44
2023-04-06T11:54:31.995Z,9.43
2023-04-06T11:58:16.327Z,9.57
2023-04-06T12:01:59.389Z,9.37
2023-04-06T12:05:43.878Z,9.70
2023-04-06T12:09:29.172Z,9.86
2023-04-06T12:13:11.915Z,9.99
2023-04-06T12:16:56.087Z,10.24
2023-04-06T12:20:38.822Z,10.12
2023-04-06T12:24:21.622Z,10.22
2023-04-06T12:28:04.353Z,10.15
2023-04-06T12:31:47.351Z,10.34
2023-04-06T12:35:35.470Z,10.62
2023-04-06T12:39:21.791Z,10.96
2023-04-06T12:43:04.646Z,10.84
2023-04-06T12:46:47.715Z,11.06
2023-04-06T12:50:31.868Z,11.08
2023-04-06T12:54:14.876Z,11.03
2023-04-06T12:57:57.629Z,11.00
2023-04-06T13:01:40.359Z,10.66
2023-04-06T13:05:23.122Z,10.72
2023-04-06T13:09:08.744Z,10.90
2023-04-06T13:12:53.564Z,11.09
2023-04-06T13:16:37.451Z,11.33
2023-04-06T13:20:20.265Z,11.63
2023-04-06T13:24:03.032Z,12.02
2023-04-06T13:27:49.547Z,12.11
2023-04-06T13:31:35.400Z,12.38
2023-04-06T13:35:18.783Z,12.36
2023-04-06T13:39:01.539Z,12.24
2023-04-06T13:42:46.033Z,12.25
2023-04-06T13:46:30.331Z,12.44
2023-04-06T13:50:13.232Z,12.99
2023-04-06T13:53:56.088Z,13.18
2023-04-06T13:57:38.816Z,13.41
2023-04-06T14:01:21.532Z,13.19
2023-04-06T14:05:06.272Z,13.25
2023-04-06T14:08:49.230Z,13.16
2023-04-06T14:12:32.694Z,13.06
2023-04-06T14:16:16.249Z,12.40
2023-04-06T14:19:58.907Z,12.29
2023-04-06T14:23:43.216Z,13.14
2023-04-06T14:27:26.322Z,12.98
2023-04-06T14:31:14.062Z,12.73
2023-04-06T14:34:56.803Z,12.38
2023-04-06T14:38:40.436Z,12.25
2023-04-06T14:42:24.534Z,12.25
2023-04-06T14:46:09.418Z,11.99
2023-04-06T14:49:54.203Z,11.85
2023-04-06T14:53:36.874Z,11.83
2023-04-06T14:57:19.629Z,11.97
2023-04-06T15:01:04.090Z,12.13
2023-04-06T15:04:46.766Z,12.47
2023-04-06T15:08:29.421Z,12.47
2023-04-06T15:12:12.079Z,12.89
2023-04-06T15:15:54.815Z,13.17
2023-04-06T15:19:38.946Z,13.36
2023-04-06T15:23:21.628Z,12.81
2023-04-06T15:27:04.279Z,12.38
2023-04-06T15:30:46.952Z,12.15
2023-04-06T15:34:31.320Z,12.38
2023-04-06T15:38:15.792Z,13.01
2023-04-06T15:41:58.471Z,13.74
2023-04-06T15:45:41.734Z,14.24
2023-04-06T15:49:24.415Z,14.84
2023-04-06T15:53:07.273Z,13.49
2023-04-06T15:56:51.549Z,12.98
2023-04-06T16:00:34.687Z,12.67
2023-04-06T16:04:17.409Z,12.40
2023-04-06T16:08:00.143Z,12.22
2023-04-06T16:11:42.837Z,12.63
2023-04-06T16:15:27.025Z,13.11
2023-04-06T16:19:09.717Z,12.83
2023-04-06T16:22:52.372Z,12.90
2023-04-06T16:26:35.530Z,13.31
2023-04-06T16:30:18.266Z,13.28
2023-04-06T16:34:02.296Z,13.35
2023-04-06T16:37:46.476Z,13.54
2023-04-06T16:41:29.524Z,13.64
2023-04-06T16:45:12.799Z,13.63
2023-04-06T16:48:55.843Z,13.37
2023-04-06T16:52:39.826Z,13.16
2023-04-06T16:56:22.721Z,12.66
2023-04-06T17:00:07.458Z,12.23
2023-04-06T17:03:50.675Z,12.07
2023-04-06T17:07:35.602Z,11.77
2023-04-06T17:11:25.496Z,11.52
2023-04-06T17:15:11.743Z,11.19
2023-04-06T17:18:54.410Z,10.87
2023-04-06T17:22:37.145Z,10.80
2023-04-06T17:26:21.577Z,10.63
2023-04-06T17:30:06.642Z,10.51
2023-04-06T17:33:49.748Z,10.63
2023-04-06T17:37:32.754Z,10.55
2023-04-06T17:41:16.100Z,10.39
2023-04-06T17:45:00.527Z,10.27
2023-04-06T17:48:43.907Z,10.18
2023-04-06T17:52:27.324Z,10.10
2023-04-06T17:56:09.977Z,10.05
2023-04-06T17:59:53.863Z,9.93
2023-04-06T18:03:38.329Z,9.90
2023-04-06T18:07:21.101Z,9.88
2023-04-06T18:11:04.233Z,9.87
2023-04-06T18:14:46.884Z,9.73
2023-04-06T18:18:29.594Z,9.64
2023-04-06T18:22:13.553Z,9.55
2023-04-06T18:25:56.243Z,9.43
2023-04-06T18:29:38.912Z,9.32
2023-04-06T18:33:21.547Z,9.24
2023-04-06T18:37:04.267Z,9.16
2023-04-06T18:40:48.289Z,9.07
2023-04-06T18:44:31.569Z,8.99
2023-04-06T18:48:14.462Z,8.92
2023-04-06T18:51:59.261Z,8.88
2023-04-06T18:55:41.998Z,8.82
2023-04-06T18:59:30.065Z,8.80
2023-04-06T19:03:12.847Z,8.77
2023-04-06T19:06:55.746Z,8.73
2023-04-06T19:10:38.601Z,8.65
2023-04-06T19:14:21.245Z,8.63
2023-04-06T19:18:05.698Z,8.59
2023-04-06T19:21:49.034Z,8.53
2023-04-06T19:25:31.962Z,8.42
2023-04-06T19:29:14.602Z,8.39
2023-04-06T19:32:57.555Z,8.30
2023-04-06T19:36:41.697Z,8.22
2023-04-06T19:40:24.334Z,8.20
2023-04-06T19:44:07.016Z,8.18
2023-04-06T19:47:49.937Z,8.15
2023-04-06T19:51:33.578Z,8.12
2023-04-06T19:55:17.942Z,8.20
2023-04-06T19:59:00.902Z,8.12
2023-04-06T20:02:43.723Z,8.13
2023-04-06T20:06:26.677Z,8.05
2023-04-06T20:10:09.795Z,7.97
2023-04-06T20:13:53.760Z,7.88
2023-04-06T20:17:36.493Z,7.87
2023-04-06T20:21:19.184Z,7.85
2023-04-06T20:25:01.826Z,7.80
2023-04-06T20:28:44.502Z,7.79
2023-04-06T20:32:28.619Z,7.80
2023-04-06T20:36:11.412Z,7.78
2023-04-06T20:39:54.062Z,7.80
2023-04-06T20:43:36.688Z,7.75
2023-04-06T20:47:19.385Z,7.72
2023-04-06T20:51:04.026Z,7.68
2023-04-06T20:54:46.728Z,7.67
2023-04-06T20:58:29.387Z,7.66
2023-04-06T21:02:12.186Z,7.60
2023-04-06T21:05:55.857Z,7.49
2023-04-06T21:09:40.995Z,7.36
2023-04-06T21:13:23.634Z,7.29
2023-04-06T21:17:06.895Z,7.21
2023-04-06T21:20:49.864Z,7.15
2023-04-06T21:24:32.502Z,7.12
2023-04-06T21:28:16.555Z,7.14
2023-04-06T21:31:59.269Z,7.14
2023-04-06T21:35:42.246Z,7.14
2023-04-06T21:39:25.341Z,7.17
2023-04-06T21:43:08.028Z,7.17
2023-04-06T21:46:52.076Z,7.17
2023-04-06T21:50:34.727Z,7.02
2023-04-06T21:54:17.653Z,6.91
2023-04-06T21:58:00.910Z,6.99
2023-04-06T22:01:43.680Z,6.93
2023-04-06T22:05:27.719Z,6.83
2023-04-06T22:09:10.677Z,6.87
2023-04-06T22:12:53.403Z,6.79
2023-04-06T22:16:36.197Z,6.75
2023-04-06T22:20:18.981Z,6.81
2023-04-06T22:24:03.013Z,6.80
2023-04-06T22:27:45.717Z,6.74
2023-04-06T22:31:28.406Z,6.75
2023-04-06T22:35:11.293Z,6.78
2023-04-06T22:38:58.210Z,6.73
2023-04-06T22:42:42.283Z,6.67
2023-04-06T22:46:24.930Z,6.65
2023-04-06T22:50:09.277Z,6.57
2023-04-06T22:53:52.733Z,6.49
2023-04-06T22:57:35.427Z,6.43
2023-04-06T23:01:19.477Z,6.44
2023-04-06T23:05:02.170Z,6.42
2023-04-06T23:08:44.815Z,6.30
2023-04-06T23:12:27.521Z,6.19
2023-04-06T23:16:10.628Z,6.02
2023-04-06T23:19:54.723Z,5.99
2023-04-06T23:23:37.446Z,5.87
2023-04-06T23:27:20.131Z,5.78
2023-04-06T23:31:02.748Z,5.74
2023-04-06T23:34:45.621Z,5.63
2023-04-06T23:38:29.606Z,5.47
2023-04-06T23:42:12.253Z,5.38
2023-04-06T23:45:54.969Z,5.23
2023-04-06T23:49:37.606Z,5.17
2023-04-06T23:53:20.232Z,5.14
2023-04-06T23:57:04.501Z,5.08
